createdAt,value
2022-09-15T00:01:43.339Z,100.00
2022-09-15T00:04:30.130Z,100.00
2022-09-15T00:07:17.174Z,100.00
2022-09-15T00:10:04.386Z,100.00
2022-09-15T00:12:52.732Z,100.00
2022-09-15T00:15:40.213Z,100.00
2022-09-15T00:18:27.005Z,100.00
2022-09-15T00:21:15.957Z,100.00
2022-09-15T00:24:03.386Z,100.00
2022-09-15T00:26:49.971Z,100.00
2022-09-15T00:29:38.041Z,100.00
2022-09-15T00:32:24.837Z,100.00
2022-09-15T00:35:12.263Z,100.00
2022-09-15T00:37:58.923Z,100.00
2022-09-15T00:40:47.186Z,100.00
2022-09-15T00:43:55.322Z,100.00
2022-09-15T00:46:58.682Z,100.00
2022-09-15T00:49:59.246Z,100.00
2022-09-15T00:52:49.943Z,100.00
2022-09-15T00:55:39.790Z,100.00
2022-09-15T00:58:29.219Z,100.00
2022-09-15T01:01:17.815Z,100.00
2022-09-15T01:04:06.111Z,100.00
2022-09-15T01:06:57.145Z,100.00
2022-09-15T01:09:50.468Z,100.00
2022-09-15T01:12:37.280Z,100.00
2022-09-15T01:15:27.659Z,100.00
2022-09-15T01:18:22.146Z,100.00
2022-09-15T01:21:44.531Z,100.00
2022-09-15T01:24:45.005Z,100.00
2022-09-15T01:28:10.447Z,100.00
2022-09-15T01:31:04.565Z,100.00
2022-09-15T01:33:57.432Z,100.00
2022-09-15T01:36:49.376Z,100.00
2022-09-15T01:39:41.285Z,100.00
2022-09-15T01:42:31.476Z,100.00
2022-09-15T01:45:23.659Z,100.00
2022-09-15T01:48:12.370Z,100.00
2022-09-15T01:51:03.523Z,100.00
2022-09-15T01:53:52.667Z,100.00
2022-09-15T01:56:41.079Z,100.00
2022-09-15T01:59:27.521Z,100.00
2022-09-15T02:02:19.996Z,100.00
2022-09-15T02:05:16.716Z,100.00
2022-09-15T02:08:10.042Z,100.00
2022-09-15T02:11:04.317Z,100.00
2022-09-15T02:14:00.750Z,100.00
2022-09-15T02:16:51.092Z,100.00
2022-09-15T02:19:42.514Z,100.00
2022-09-15T02:22:35.100Z,100.00
2022-09-15T02:25:26.122Z,100.00
2022-09-15T02:28:15.290Z,100.00
2022-09-15T02:31:05.000Z,100.00
2022-09-15T02:33:59.070Z,100.00
2022-09-15T02:36:46.924Z,100.00
2022-09-15T02:39:38.447Z,100.00
2022-09-15T02:42:25.952Z,100.00
2022-09-15T02:45:12.385Z,100.00
2022-09-15T02:47:59.313Z,100.00
2022-09-15T02:50:45.623Z,100.00
2022-09-15T02:53:32.486Z,100.00
2022-09-15T02:56:21.001Z,100.00
2022-09-15T02:59:07.652Z,100.00
2022-09-15T03:01:54.261Z,100.00
2022-09-15T03:04:40.780Z,100.00
2022-09-15T03:07:28.589Z,100.00
2022-09-15T03:10:16.209Z,100.00
2022-09-15T03:13:04.712Z,100.00
2022-09-15T03:15:51.630Z,100.00
2022-09-15T03:18:39.133Z,100.00
2022-09-15T03:21:27.394Z,100.00
2022-09-15T03:24:15.396Z,100.00
2022-09-15T03:27:02.266Z,100.00
2022-09-15T03:29:50.472Z,100.00
2022-09-15T03:32:37.487Z,100.00
2022-09-15T03:35:25.332Z,100.00
2022-09-15T03:38:12.090Z,100.00
2022-09-15T03:41:01.156Z,100.00
2022-09-15T03:43:48.309Z,100.00
2022-09-15T03:46:36.557Z,100.00
2022-09-15T03:49:23.322Z,100.00
2022-09-15T03:52:10.056Z,100.00
2022-09-15T03:54:56.572Z,100.00
2022-09-15T03:57:43.402Z,100.00
2022-09-15T04:00:31.413Z,100.00
2022-09-15T04:03:19.533Z,100.00
2022-09-15T04:06:06.805Z,100.00
2022-09-15T04:08:54.327Z,100.00
2022-09-15T04:11:42.796Z,100.00
2022-09-15T04:14:29.193Z,100.00
2022-09-15T04:17:16.243Z,100.00
2022-09-15T04:20:05.821Z,100.00
2022-09-15T04:22:52.607Z,100.00
2022-09-15T04:25:39.427Z,100.00
2022-09-15T04:28:26.267Z,100.00
2022-09-15T04:31:14.994Z,100.00
2022-09-15T04:34:02.131Z,100.00
2022-09-15T04:36:50.045Z,100.00
2022-09-15T04:39:36.659Z,100.00
2022-09-15T04:42:24.088Z,100.00
2022-09-15T04:45:11.433Z,100.00
2022-09-15T04:47:57.813Z,100.00
2022-09-15T04:50:44.526Z,100.00
2022-09-15T04:53:50.364Z,100.00
2022-09-15T04:56:37.064Z,100.00
2022-09-15T04:59:23.858Z,100.00
2022-09-15T05:02:10.768Z,100.00
2022-09-15T05:04:57.482Z,100.00
2022-09-15T05:07:44.112Z,100.00
2022-09-15T05:10:32.570Z,100.00
2022-09-15T05:13:20.342Z,100.00
2022-09-15T05:16:09.113Z,100.00
2022-09-15T05:19:00.406Z,100.00
2022-09-15T05:21:48.957Z,100.00
2022-09-15T05:24:36.881Z,100.00
2022-09-15T05:27:26.087Z,100.00
2022-09-15T05:30:36.735Z,100.00
2022-09-15T05:33:21.603Z,100.00
2022-09-15T05:36:08.959Z,100.00
2022-09-15T05:38:57.486Z,100.00
2022-09-15T05:41:44.042Z,100.00
2022-09-15T05:44:32.293Z,100.00
2022-09-15T05:47:18.701Z,100.00
2022-09-15T05:50:05.845Z,100.00
2022-09-15T05:52:52.768Z,100.00
2022-09-15T05:55:39.313Z,100.00
2022-09-15T05:58:26.874Z,100.00
2022-09-15T06:01:16.967Z,100.00
2022-09-15T06:04:04.066Z,100.00
2022-09-15T06:06:51.280Z,100.00
2022-09-15T06:09:39.392Z,100.00
2022-09-15T06:12:26.315Z,100.00
2022-09-15T06:15:13.250Z,100.00
2022-09-15T06:18:01.194Z,100.00
2022-09-15T06:20:48.049Z,100.00
2022-09-15T06:23:35.010Z,100.00
2022-09-15T06:26:21.990Z,100.00
2022-09-15T06:29:08.836Z,100.00
2022-09-15T06:31:57.215Z,100.00
2022-09-15T06:34:45.305Z,100.00
2022-09-15T06:37:32.370Z,100.00
2022-09-15T06:40:19.422Z,100.00
2022-09-15T06:43:05.982Z,100.00
2022-09-15T06:45:52.666Z,100.00
2022-09-15T06:48:40.857Z,100.00
2022-09-15T06:51:31.491Z,100.00
2022-09-15T06:54:18.537Z,100.00
2022-09-15T06:57:05.253Z,100.00
2022-09-15T06:59:51.755Z,100.00
2022-09-15T07:02:38.662Z,100.00
2022-09-15T07:05:25.687Z,100.00
2022-09-15T07:08:14.294Z,100.00
2022-09-15T07:11:01.049Z,100.00
2022-09-15T07:13:48.809Z,100.00
2022-09-15T07:16:35.425Z,100.00
2022-09-15T07:19:24.511Z,100.00
2022-09-15T07:22:12.212Z,100.00
2022-09-15T07:25:01.292Z,100.00
2022-09-15T07:27:48.273Z,100.00
2022-09-15T07:30:35.125Z,100.00
2022-09-15T07:33:27.146Z,100.00
2022-09-15T07:36:15.535Z,100.00
2022-09-15T07:39:04.581Z,100.00
2022-09-15T07:41:52.316Z,100.00
2022-09-15T07:44:39.058Z,100.00
2022-09-15T07:47:26.012Z,100.00
2022-09-15T07:50:14.438Z,100.00
2022-09-15T07:53:00.905Z,100.00
2022-09-15T07:55:47.751Z,100.00
2022-09-15T07:58:35.932Z,100.00
2022-09-15T08:01:23.156Z,100.00
2022-09-15T08:04:09.876Z,100.00
2022-09-15T08:06:56.579Z,100.00
2022-09-15T08:09:43.304Z,100.00
2022-09-15T08:12:30.787Z,100.00
2022-09-15T08:15:19.149Z,100.00
2022-09-15T08:18:06.676Z,100.00
2022-09-15T08:20:53.310Z,100.00
2022-09-15T08:23:40.402Z,100.00
2022-09-15T08:26:28.884Z,100.00
2022-09-15T08:29:15.822Z,100.00
2022-09-15T08:32:03.964Z,100.00
2022-09-15T08:34:50.578Z,100.00
2022-09-15T08:37:37.453Z,100.00
2022-09-15T08:40:38.249Z,100.00
2022-09-15T08:43:28.873Z,100.00
2022-09-15T08:46:20.923Z,100.00
2022-09-15T08:49:30.585Z,100.00
2022-09-15T08:52:29.665Z,100.00
2022-09-15T08:55:21.411Z,100.00
2022-09-15T08:58:14.445Z,100.00
2022-09-15T09:01:07.166Z,100.00
2022-09-15T09:04:17.498Z,100.00
2022-09-15T09:07:21.566Z,100.00
2022-09-15T09:10:16.540Z,100.00
2022-09-15T09:13:15.618Z,100.00
2022-09-15T09:16:19.289Z,100.00
2022-09-15T09:19:56.510Z,100.00
2022-09-15T09:22:47.430Z,100.00
2022-09-15T09:25:36.187Z,100.00
2022-09-15T09:28:30.226Z,100.00
2022-09-15T09:31:21.791Z,100.00
2022-09-15T09:34:20.613Z,100.00
2022-09-15T09:37:12.069Z,100.00
2022-09-15T09:40:00.457Z,100.00
2022-09-15T09:42:47.593Z,100.00
2022-09-15T09:45:34.284Z,100.00
2022-09-15T09:48:23.265Z,100.00
2022-09-15T09:51:31.307Z,100.00
2022-09-15T09:54:18.094Z,100.00
2022-09-15T09:57:30.029Z,100.00
2022-09-15T10:00:33.391Z,100.00
2022-09-15T10:03:21.898Z,99.74
2022-09-15T10:06:14.175Z,100.00
2022-09-15T10:09:04.729Z,100.00
2022-09-15T10:11:53.893Z,100.00
2022-09-15T10:14:45.490Z,100.00
2022-09-15T10:17:45.231Z,100.00
2022-09-15T10:20:35.679Z,100.00
2022-09-15T10:23:27.580Z,100.00
2022-09-15T10:26:23.580Z,100.00
2022-09-15T10:29:15.919Z,100.00
2022-09-15T10:32:20.590Z,100.00
2022-09-15T10:35:12.781Z,99.47
2022-09-15T10:38:06.020Z,95.83
2022-09-15T10:41:02.090Z,95.66
2022-09-15T10:44:05.957Z,96.36
2022-09-15T10:47:04.231Z,95.26
2022-09-15T10:50:07.410Z,96.20
2022-09-15T10:53:09.850Z,96.85
2022-09-15T10:56:04.553Z,99.94
2022-09-15T10:59:03.511Z,97.86
2022-09-15T11:02:04.006Z,99.07
2022-09-15T11:05:09.669Z,95.42
2022-09-15T11:08:19.141Z,94.93
2022-09-15T11:11:10.727Z,96.46
2022-09-15T11:14:12.510Z,95.48
2022-09-15T11:17:15.639Z,94.45
2022-09-15T11:20:25.375Z,92.42
2022-09-15T11:23:18.955Z,95.84
2022-09-15T11:26:08.537Z,98.85
2022-09-15T11:28:59.433Z,96.06
2022-09-15T11:31:50.750Z,97.92
2022-09-15T11:34:45.832Z,98.23
2022-09-15T11:37:40.834Z,96.62
2022-09-15T11:40:30.321Z,97.35
2022-09-15T11:43:22.867Z,97.70
2022-09-15T11:46:17.288Z,97.28
2022-09-15T11:49:08.156Z,94.32
2022-09-15T11:52:02.610Z,93.63
2022-09-15T11:54:58.840Z,97.78
2022-09-15T11:57:52.053Z,95.17
2022-09-15T12:00:49.888Z,95.64
2022-09-15T12:03:41.303Z,95.48
2022-09-15T12:06:34.124Z,96.67
2022-09-15T12:09:22.098Z,99.27
2022-09-15T12:12:15.266Z,98.44
2022-09-15T12:15:09.383Z,98.52
2022-09-15T12:18:34.376Z,99.22
2022-09-15T12:21:25.158Z,96.04
2022-09-15T12:24:23.773Z,98.93
2022-09-15T12:27:17.924Z,100.00
2022-09-15T12:30:06.541Z,99.18
2022-09-15T12:32:57.475Z,98.33
2022-09-15T12:35:44.919Z,99.17
2022-09-15T12:38:31.947Z,94.49
2022-09-15T12:41:21.253Z,98.46
2022-09-15T12:44:21.264Z,99.20
2022-09-15T12:47:19.317Z,97.03
2022-09-15T12:50:23.040Z,98.21
2022-09-15T12:53:18.733Z,95.56
2022-09-15T12:56:08.580Z,92.48
2022-09-15T12:58:56.929Z,91.10
2022-09-15T13:02:04.118Z,90.85
2022-09-15T13:04:57.773Z,89.94
2022-09-15T13:07:56.572Z,91.00
2022-09-15T13:11:00.340Z,94.29
2022-09-15T13:13:51.615Z,88.17
2022-09-15T13:16:47.676Z,90.02
2022-09-15T13:19:46.766Z,91.45
2022-09-15T13:22:38.433Z,92.22
2022-09-15T13:25:30.038Z,96.06
2022-09-15T13:28:18.995Z,93.45
2022-09-15T13:31:18.829Z,92.73
2022-09-15T13:38:13.959Z,88.25
2022-09-15T13:41:35.558Z,86.59
2022-09-15T13:44:46.991Z,89.51
2022-09-15T13:47:43.458Z,87.52
2022-09-15T13:50:35.502Z,90.34
2022-09-15T13:53:44.601Z,87.94
2022-09-15T13:56:35.663Z,89.20
2022-09-15T13:59:26.473Z,92.49
2022-09-15T14:02:14.984Z,93.01
2022-09-15T14:05:02.074Z,91.97
2022-09-15T14:07:59.128Z,91.96
2022-09-15T14:10:51.712Z,93.23
2022-09-15T14:13:44.587Z,93.90
2022-09-15T14:16:35.368Z,95.81
2022-09-15T14:19:31.274Z,94.82
2022-09-15T14:22:27.373Z,94.97
2022-09-15T14:25:18.193Z,92.95
2022-09-15T14:28:06.085Z,94.81
2022-09-15T14:30:54.710Z,94.58
2022-09-15T14:33:42.246Z,92.93
2022-09-15T14:36:31.412Z,94.02
2022-09-15T14:39:21.266Z,94.74
2022-09-15T14:42:21.704Z,94.08
2022-09-15T14:48:28.187Z,96.96
2022-09-15T14:51:22.013Z,91.68
2022-09-15T14:54:16.858Z,92.55
2022-09-15T14:57:06.687Z,94.55
2022-09-15T14:59:58.908Z,90.29
2022-09-15T15:02:55.660Z,90.91
2022-09-15T15:05:48.528Z,93.14
2022-09-15T15:08:39.028Z,94.42
2022-09-15T15:11:26.172Z,96.42
2022-09-15T15:14:14.568Z,100.00
2022-09-15T15:17:05.934Z,100.00
2022-09-15T15:20:00.057Z,100.00
2022-09-15T15:22:48.562Z,100.00
2022-09-15T15:25:37.288Z,100.00
2022-09-15T15:28:32.079Z,100.00
2022-09-15T15:31:20.870Z,100.00
2022-09-15T15:34:23.979Z,100.00
2022-09-15T15:37:20.591Z,100.00
2022-09-15T15:40:18.093Z,100.00
2022-09-15T15:43:07.610Z,100.00
2022-09-15T15:45:58.352Z,100.00
2022-09-15T15:48:45.375Z,100.00
2022-09-15T15:51:32.582Z,100.00
2022-09-15T15:54:18.960Z,100.00
2022-09-15T15:57:24.267Z,100.00
2022-09-15T16:00:21.388Z,100.00
2022-09-15T16:03:09.664Z,100.00
2022-09-15T16:06:00.414Z,100.00
2022-09-15T16:08:49.303Z,100.00
2022-09-15T16:11:35.905Z,100.00
2022-09-15T16:14:23.961Z,100.00
2022-09-15T16:17:10.910Z,100.00
2022-09-15T16:19:57.474Z,100.00
2022-09-15T16:22:44.371Z,100.00
2022-09-15T16:25:37.299Z,100.00
2022-09-15T16:28:23.725Z,100.00
2022-09-15T16:31:14.220Z,100.00
2022-09-15T16:34:01.112Z,100.00
2022-09-15T16:36:47.855Z,100.00
2022-09-15T16:39:34.489Z,100.00
2022-09-15T16:42:21.209Z,100.00
2022-09-15T16:45:18.791Z,100.00
2022-09-15T16:48:06.826Z,100.00
2022-09-15T16:51:17.174Z,100.00
2022-09-15T16:53:59.690Z,100.00
2022-09-15T16:56:47.096Z,100.00
2022-09-15T16:59:33.922Z,100.00
2022-09-15T17:02:22.451Z,100.00
2022-09-15T17:05:17.773Z,100.00
2022-09-15T17:08:04.905Z,100.00
2022-09-15T17:10:52.957Z,100.00
2022-09-15T17:13:39.738Z,100.00
2022-09-15T17:16:26.317Z,100.00
2022-09-15T17:19:13.113Z,100.00
2022-09-15T17:22:01.702Z,100.00
2022-09-15T17:24:48.628Z,100.00
2022-09-15T17:27:35.781Z,100.00
2022-09-15T17:30:24.390Z,100.00
2022-09-15T17:33:14.487Z,100.00
2022-09-15T17:36:01.338Z,100.00
2022-09-15T17:38:49.327Z,100.00
2022-09-15T17:41:36.027Z,100.00
2022-09-15T17:44:22.561Z,100.00
2022-09-15T17:47:09.321Z,100.00
2022-09-15T17:50:09.399Z,100.00
2022-09-15T17:52:57.155Z,100.00
2022-09-15T17:55:48.120Z,100.00
2022-09-15T17:58:37.350Z,100.00
2022-09-15T18:01:24.154Z,100.00
2022-09-15T18:04:12.392Z,100.00
2022-09-15T18:06:59.007Z,100.00
2022-09-15T18:09:45.645Z,100.00
2022-09-15T18:12:33.831Z,100.00
2022-09-15T18:15:22.635Z,100.00
2022-09-15T18:18:14.464Z,100.00
2022-09-15T18:21:02.209Z,100.00
2022-09-15T18:23:48.635Z,100.00
2022-09-15T18:26:35.621Z,100.00
2022-09-15T18:29:23.565Z,100.00
2022-09-15T18:32:10.377Z,100.00
2022-09-15T18:34:57.103Z,100.00
2022-09-15T18:37:45.710Z,100.00
2022-09-15T18:40:32.492Z,100.00
2022-09-15T18:43:19.014Z,100.00
2022-09-15T18:46:07.326Z,100.00
2022-09-15T18:48:53.992Z,100.00
2022-09-15T18:51:51.662Z,100.00
2022-09-15T18:54:38.704Z,100.00
2022-09-15T18:57:25.388Z,100.00
2022-09-15T19:00:15.510Z,100.00
2022-09-15T19:03:05.640Z,100.00
2022-09-15T19:05:52.301Z,100.00
2022-09-15T19:08:40.363Z,100.00
2022-09-15T19:11:29.333Z,100.00
2022-09-15T19:14:16.092Z,100.00
2022-09-15T19:17:02.889Z,100.00
2022-09-15T19:19:50.978Z,100.00
2022-09-15T19:22:38.021Z,100.00
2022-09-15T19:25:24.758Z,100.00
2022-09-15T19:28:11.791Z,100.00
2022-09-15T19:30:59.328Z,100.00
2022-09-15T19:33:45.897Z,100.00
2022-09-15T19:36:34.216Z,100.00
2022-09-15T19:39:20.836Z,100.00
2022-09-15T19:42:08.328Z,100.00
2022-09-15T19:44:55.409Z,100.00
2022-09-15T19:47:42.621Z,100.00
2022-09-15T19:50:30.065Z,100.00
2022-09-15T19:53:18.542Z,100.00
2022-09-15T19:56:06.213Z,100.00
2022-09-15T19:58:54.891Z,100.00
2022-09-15T20:01:41.790Z,100.00
2022-09-15T20:04:28.953Z,100.00
2022-09-15T20:07:15.975Z,100.00
2022-09-15T20:10:04.450Z,100.00
2022-09-15T20:12:51.249Z,100.00
2022-09-15T20:15:38.213Z,100.00
2022-09-15T20:18:25.073Z,100.00
2022-09-15T20:21:21.774Z,100.00
2022-09-15T20:24:14.028Z,100.00
2022-09-15T20:27:01.996Z,100.00
2022-09-15T20:29:48.775Z,100.00
2022-09-15T20:32:35.626Z,100.00
2022-09-15T20:35:22.363Z,100.00
2022-09-15T20:38:09.100Z,100.00
2022-09-15T20:40:56.271Z,100.00
2022-09-15T20:43:44.823Z,100.00
2022-09-15T20:46:31.939Z,100.00
2022-09-15T20:49:18.589Z,100.00
2022-09-15T20:52:05.216Z,100.00
2022-09-15T20:54:51.922Z,100.00
2022-09-15T20:57:38.435Z,100.00
2022-09-15T21:00:29.550Z,100.00
2022-09-15T21:03:20.637Z,100.00
2022-09-15T21:06:09.122Z,100.00
2022-09-15T21:08:57.885Z,100.00
2022-09-15T21:11:45.154Z,100.00
2022-09-15T21:14:31.589Z,100.00
2022-09-15T21:17:19.955Z,100.00
2022-09-15T21:20:07.380Z,100.00
2022-09-15T21:22:55.457Z,100.00
2022-09-15T21:25:41.977Z,100.00
2022-09-15T21:28:29.431Z,100.00
2022-09-15T21:31:17.997Z,100.00
2022-09-15T21:34:05.728Z,100.00
2022-09-15T21:36:53.695Z,100.00
2022-09-15T21:39:40.592Z,100.00
2022-09-15T21:42:27.475Z,100.00
2022-09-15T21:45:13.949Z,100.00
2022-09-15T21:48:00.718Z,100.00
2022-09-15T21:50:52.252Z,100.00
2022-09-15T21:53:39.177Z,100.00
2022-09-15T21:56:27.448Z,100.00
2022-09-15T21:59:14.373Z,100.00
2022-09-15T22:02:01.115Z,100.00
2022-09-15T22:04:47.972Z,100.00
2022-09-15T22:07:36.085Z,100.00
2022-09-15T22:10:23.007Z,100.00
2022-09-15T22:13:11.336Z,100.00
2022-09-15T22:16:02.109Z,100.00
2022-09-15T22:18:48.966Z,100.00
2022-09-15T22:21:37.187Z,100.00
2022-09-15T22:24:25.067Z,100.00
2022-09-15T22:27:11.796Z,100.00
2022-09-15T22:29:58.641Z,100.00
2022-09-15T22:32:45.411Z,100.00
2022-09-15T22:35:31.960Z,100.00
2022-09-15T22:38:18.810Z,100.00
2022-09-15T22:41:09.171Z,100.00
2022-09-15T22:43:55.938Z,100.00
2022-09-15T22:46:42.408Z,100.00
2022-09-15T22:49:29.253Z,100.00
2022-09-15T22:52:15.904Z,100.00
2022-09-15T22:55:03.285Z,100.00
2022-09-15T22:57:51.123Z,100.00
2022-09-15T23:00:38.946Z,100.00
2022-09-15T23:03:25.491Z,100.00
2022-09-15T23:06:12.233Z,100.00
2022-09-15T23:09:01.296Z,100.00
2022-09-15T23:11:47.795Z,100.00
2022-09-15T23:14:37.084Z,100.00
2022-09-15T23:17:24.174Z,100.00
2022-09-15T23:20:11.318Z,100.00
2022-09-15T23:22:58.073Z,100.00
2022-09-15T23:25:44.894Z,100.00
2022-09-15T23:28:32.141Z,100.00
2022-09-15T23:31:22.541Z,100.00
2022-09-15T23:34:08.859Z,100.00
2022-09-15T23:36:55.656Z,100.00
2022-09-15T23:39:42.698Z,100.00
2022-09-15T23:42:29.074Z,100.00
2022-09-15T23:45:16.021Z,100.00
2022-09-15T23:48:04.926Z,100.00
2022-09-15T23:50:51.325Z,100.00
2022-09-15T23:53:38.322Z,100.00
2022-09-15T23:56:25.326Z,100.00
2022-09-15T23:59:11.821Z,100.00
